^^
Datos históricos de la estación: Murcia-Puente Tocinos
Diario Informe para Diciembre 20, 2019 Unidades:  Ambas    Ingés   Métrico
Diario Semanal Mensual Anual
  Máxima: Mínima: Promedio:
Temperatura: 68.9 °F /  20.5 °C 49.5 °F /  9.7 °C 62.8 °F /  17.1 °C
Punto de rocio: 58.3 °F /  14.6 °C 45.5 °F /  7.5 °C 54.3 °F /  12.4 °C
Humedad: 88.7% 57.3% 74%
Velocidad viento: 14.7mph /  23.7km/h - 7.1mph /  11.5km/h
Racha viento: 29mph /  46.7km/h - -
Viento- - SSO
Presión: 29.8 in /  1010.2 hPa 29.6 in /  1002.0 hPa -
Precipitación: 0 in /  0.0 mm    
 
 
Tabla de datos para Diciembre 20, 2019
Hora Temperatura Punto de rocio Presión Viento Velocidad viento Racha viento Humedad Intensidad lluvia(por hora) Nubes
00:04 49.8 °F /  9.9 °C 45.5 °F /  7.5 °C 29.8in /  1010.2hPa ONO 2.6mph /  4.2km/h 8mph /  12.9km/h 85% 0in /  0.0mm
00:09 49.8 °F /  9.9 °C 45.5 °F /  7.5 °C 29.8in /  1010.2hPa NO 3.6mph /  5.8km/h 5mph /  8km/h 85% 0in /  0.0mm
00:14 49.6 °F /  9.8 °C 45.5 °F /  7.5 °C 29.8in /  1010.1hPa NO 2.7mph /  4.4km/h 5mph /  8km/h 85.5% 0in /  0.0mm
00:19 49.6 °F /  9.8 °C 45.7 °F /  7.6 °C 29.8in /  1010.1hPa NO 2mph /  3.2km/h 5.2mph /  8.4km/h 86% 0in /  0.0mm
00:24 49.5 °F /  9.7 °C 45.5 °F /  7.5 °C 29.8in /  1010.1hPa NNE 2.2mph /  3.6km/h 5mph /  8km/h 86% 0in /  0.0mm
00:29 49.5 °F /  9.7 °C 45.7 °F /  7.6 °C 29.8in /  1009.9hPa NNE 2.4mph /  3.9km/h 5mph /  8km/h 86.7% 0in /  0.0mm
00:34 49.5 °F /  9.7 °C 45.9 °F /  7.7 °C 29.8in /  1009.9hPa ENE 2.7mph /  4.3km/h 5.8mph /  9.3km/h 87% 0in /  0.0mm
00:39 49.5 °F /  9.7 °C 45.9 °F /  7.7 °C 29.8in /  1009.9hPa SE 2.9mph /  4.7km/h 6mph /  9.7km/h 87% 0in /  0.0mm
00:44 49.6 °F /  9.8 °C 45.9 °F /  7.7 °C 29.8in /  1009.8hPa SSE 3mph /  4.8km/h 7.4mph /  11.9km/h 87% 0in /  0.0mm
00:49 49.6 °F /  9.8 °C 45.9 °F /  7.7 °C 29.8in /  1009.8hPa Sur 3.1mph /  5km/h 7mph /  11.3km/h 87% 0in /  0.0mm
00:54 49.6 °F /  9.8 °C 45.9 °F /  7.7 °C 29.8in /  1009.8hPa Sur 3.4mph /  5.4km/h 7mph /  11.3km/h 87% 0in /  0.0mm
00:59 49.6 °F /  9.8 °C 45.9 °F /  7.7 °C 29.8in /  1009.2hPa Oeste 3.6mph /  5.8km/h 6mph /  9.7km/h 87% 0in /  0.0mm
01:04 49.8 °F /  9.9 °C 46 °F /  7.8 °C 29.8in /  1009.2hPa Oeste 2.6mph /  4.2km/h 5mph /  8km/h 87% 0in /  0.0mm
01:09 49.8 °F /  9.9 °C 46 °F /  7.8 °C 29.8in /  1009.2hPa NNO 1.8mph /  2.9km/h 5mph /  8km/h 87% 0in /  0.0mm
01:14 49.8 °F /  9.9 °C 46 °F /  7.8 °C 29.8in /  1008.8hPa NNO 1.9mph /  3.1km/h 5mph /  8km/h 87% 0in /  0.0mm
01:19 49.8 °F /  9.9 °C 46 °F /  7.8 °C 29.8in /  1008.8hPa NNO 2mph /  3.2km/h 5.8mph /  9.3km/h 87% 0in /  0.0mm
01:24 49.8 °F /  9.9 °C 46 °F /  7.8 °C 29.8in /  1008.9hPa North 2.2mph /  3.6km/h 6mph /  9.7km/h 87% 0in /  0.0mm
01:29 50 °F /  10 °C 46.2 °F /  7.9 °C 29.8in /  1008.9hPa NNE 2.4mph /  3.9km/h 6mph /  9.7km/h 87% 0in /  0.0mm
01:34 50.2 °F /  10.1 °C 46.4 °F /  8 °C 29.8in /  1008.9hPa NE 2.7mph /  4.3km/h 5mph /  8km/h 87% 0in /  0.0mm
01:39 50.2 °F /  10.1 °C 46.6 °F /  8.1 °C 29.8in /  1008.9hPa NE 2.9mph /  4.6km/h 5.2mph /  8.4km/h 87% 0in /  0.0mm
01:44 50.4 °F /  10.2 °C 46.6 °F /  8.1 °C 29.8in /  1008.2hPa NE 2.4mph /  3.9km/h 5mph /  8km/h 87% 0in /  0.0mm
01:49 50.4 °F /  10.2 °C 46.6 °F /  8.1 °C 29.8in /  1008.2hPa NE 2mph /  3.2km/h 8.1mph /  13km/h 87% 0in /  0.0mm
01:54 50.5 °F /  10.3 °C 46.8 °F /  8.2 °C 29.8in /  1008.2hPa NE 3mph /  4.8km/h 8mph /  12.9km/h 87% 0in /  0.0mm
01:59 50.5 °F /  10.3 °C 46.6 °F /  8.1 °C 29.8in /  1007.7hPa NNE 4mph /  6.5km/h 6mph /  9.7km/h 86.2% 0in /  0.0mm
02:04 50.5 °F /  10.3 °C 46.6 °F /  8.1 °C 29.8in /  1007.7hPa NNE 3.2mph /  5.1km/h 5mph /  8km/h 86% 0in /  0.0mm
02:09 50.5 °F /  10.3 °C 46.4 °F /  8 °C 29.8in /  1007.7hPa ONO 2.4mph /  3.9km/h 6.2mph /  10km/h 86% 0in /  0.0mm
02:14 50.4 °F /  10.2 °C 46.4 °F /  8 °C 29.8in /  1007.7hPa ONO 2.7mph /  4.4km/h 6mph /  9.7km/h 86.5% 0in /  0.0mm
02:19 50.4 °F /  10.2 °C 46.6 °F /  8.1 °C 29.8in /  1007.7hPa ONO 3.1mph /  5km/h 8.1mph /  13km/h 87% 0in /  0.0mm
02:24 50.4 °F /  10.2 °C 46.6 °F /  8.1 °C 29.8in /  1007.7hPa NO 3.6mph /  5.8km/h 8.1mph /  13km/h 87% 0in /  0.0mm
02:29 50.4 °F /  10.2 °C 46.6 °F /  8.1 °C 29.7in /  1007.2hPa NO 4mph /  6.5km/h 10.4mph /  16.7km/h 87% 0in /  0.0mm
02:34 50.4 °F /  10.2 °C 46.9 °F /  8.3 °C 29.7in /  1007.2hPa NNO 4.3mph /  7km/h 10mph /  16.1km/h 88.2% 0in /  0.0mm
02:39 51.3 °F /  10.7 °C 48 °F /  8.9 °C 29.7in /  1007.2hPa ONO 4.7mph /  7.6km/h 7.4mph /  11.9km/h 88.7% 0in /  0.0mm
02:44 52.2 °F /  11.2 °C 48 °F /  8.9 °C 29.7in /  1007.1hPa NNO 4.2mph /  6.7km/h 7mph /  11.3km/h 86.2% 0in /  0.0mm
02:49 52.3 °F /  11.3 °C 47.8 °F /  8.8 °C 29.7in /  1007.1hPa NNO 3.6mph /  5.8km/h 6mph /  9.7km/h 84.7% 0in /  0.0mm
02:54 52.3 °F /  11.3 °C 47.7 °F /  8.7 °C 29.7in /  1007.3hPa North 3.4mph /  5.4km/h 5.9mph /  9.5km/h 84.3% 0in /  0.0mm
02:59 52.5 °F /  11.4 °C 47.8 °F /  8.8 °C 29.7in /  1007.3hPa NNE 3.1mph /  5km/h 6.9mph /  11.1km/h 84% 0in /  0.0mm
03:04 52.9 °F /  11.6 °C 48.2 °F /  9 °C 29.7in /  1007.3hPa North 3.1mph /  5km/h 7mph /  11.3km/h 84% 0in /  0.0mm
03:09 53.1 °F /  11.7 °C 48.4 °F /  9.1 °C 29.8in /  1007.5hPa NNO 3.1mph /  5km/h 6.2mph /  10km/h 84% 0in /  0.0mm
03:14 53.2 °F /  11.8 °C 48.6 °F /  9.2 °C 29.8in /  1007.5hPa North 3.1mph /  5km/h 6mph /  9.7km/h 83.9% 0in /  0.0mm
03:19 53.6 °F /  12 °C 48.6 °F /  9.2 °C 29.8in /  1007.5hPa NNO 3.1mph /  5km/h 5.2mph /  8.4km/h 83% 0in /  0.0mm
03:24 54 °F /  12.2 °C 48.6 °F /  9.2 °C 29.8in /  1007.5hPa NO 3mph /  4.8km/h 5mph /  8km/h 82.2% 0in /  0.0mm
03:29 54.3 °F /  12.4 °C 49.1 °F /  9.5 °C 29.8in /  1007.5hPa NO 2.9mph /  4.7km/h 4.6mph /  7.4km/h 82.3% 0in /  0.0mm
03:34 54.9 °F /  12.7 °C 49.1 °F /  9.5 °C 29.8in /  1007.5hPa NO 2.4mph /  3.8km/h 5mph /  8km/h 81% 0in /  0.0mm
03:39 55 °F /  12.8 °C 48.7 °F /  9.3 °C 29.8in /  1007.5hPa SO 1.8mph /  2.9km/h 5.8mph /  9.3km/h 79.3% 0in /  0.0mm
03:44 54.9 °F /  12.7 °C 48.4 °F /  9.1 °C 29.8in /  1007.4hPa OSO 1.9mph /  3.1km/h 6mph /  9.7km/h 79% 0in /  0.0mm
03:49 54.5 °F /  12.5 °C 48.4 °F /  9.1 °C 29.8in /  1007.4hPa OSO 2mph /  3.2km/h 4.6mph /  7.4km/h 79.5% 0in /  0.0mm
03:54 54.3 °F /  12.4 °C 48.6 °F /  9.2 °C 29.8in /  1007.4hPa OSO 1.9mph /  3.1km/h 5mph /  8km/h 80.7% 0in /  0.0mm
03:59 54.7 °F /  12.6 °C 48.9 °F /  9.4 °C 29.7in /  1007.0hPa SSO 1.8mph /  2.9km/h 5.9mph /  9.5km/h 81% 0in /  0.0mm
04:04 54.9 °F /  12.7 °C 48.9 °F /  9.4 °C 29.7in /  1007.0hPa SSE 2.5mph /  4km/h 6mph /  9.7km/h 80.3% 0in /  0.0mm
04:09 55.4 °F /  13 °C 49.5 °F /  9.7 °C 29.7in /  1007.0hPa Sur 3.1mph /  5km/h 5mph /  8km/h 80.3% 0in /  0.0mm
04:14 55.8 °F /  13.2 °C 49.3 °F /  9.6 °C 29.7in /  1006.6hPa Sur 2.5mph /  4.1km/h 3.5mph /  5.6km/h 79% 0in /  0.0mm
04:19 56.3 °F /  13.5 °C 49.8 °F /  9.9 °C 29.7in /  1006.6hPa Sur 2mph /  3.2km/h 7.4mph /  11.9km/h 79% 0in /  0.0mm
04:24 57.2 °F /  14 °C 50.7 °F /  10.4 °C 29.7in /  1006.6hPa Sur 2.5mph /  4.1km/h 8.1mph /  13km/h 78.8% 0in /  0.0mm
04:29 58.3 °F /  14.6 °C 51.3 °F /  10.7 °C 29.7in /  1006.1hPa Sur 3.1mph /  5km/h 13.7mph /  22km/h 77.3% 0in /  0.0mm
04:34 59.7 °F /  15.4 °C 51.8 °F /  11 °C 29.7in /  1006.1hPa Sur 5.8mph /  9.3km/h 17.3mph /  27.8km/h 74.9% 0in /  0.0mm
04:39 60.6 °F /  15.9 °C 52 °F /  11.1 °C 29.7in /  1006.1hPa Sur 8.5mph /  13.7km/h 19.7mph /  31.7km/h 72.9% 0in /  0.0mm
04:44 61.3 °F /  16.3 °C 52 °F /  11.1 °C 29.7in /  1005.8hPa Sur 9.4mph /  15.1km/h 23.5mph /  37.8km/h 71.3% 0in /  0.0mm
04:49 61.7 °F /  16.5 °C 52 °F /  11.1 °C 29.7in /  1005.8hPa Sur 10.2mph /  16.4km/h 23mph /  37km/h 70.3% 0in /  0.0mm
04:54 61.9 °F /  16.6 °C 52 °F /  11.1 °C 29.7in /  1005.8hPa Sur 11.2mph /  18.1km/h 21mph /  33.8km/h 70% 0in /  0.0mm
04:59 62.1 °F /  16.7 °C 51.8 °F /  11 °C 29.7in /  1005.4hPa Sur 12.3mph /  19.8km/h 21.9mph /  35.2km/h 69.4% 0in /  0.0mm
05:04 61.9 °F /  16.6 °C 51.8 °F /  11 °C 29.7in /  1005.4hPa Sur 11.8mph /  19km/h 22mph /  35.4km/h 69.3% 0in /  0.0mm
05:09 61.7 °F /  16.5 °C 51.8 °F /  11 °C 29.7in /  1005.4hPa Sur 11.4mph /  18.4km/h 20.7mph /  33.3km/h 70% 0in /  0.0mm
05:14 61.7 °F /  16.5 °C 51.8 °F /  11 °C 29.7in /  1005.1hPa Sur 11.4mph /  18.4km/h 21mph /  33.8km/h 70% 0in /  0.0mm
05:19 61.5 °F /  16.4 °C 51.8 °F /  11 °C 29.7in /  1005.1hPa Sur 11.4mph /  18.4km/h 21.3mph /  34.3km/h 70.3% 0in /  0.0mm
05:24 61.5 °F /  16.4 °C 52.2 °F /  11.2 °C 29.7in /  1005.1hPa Sur 11.9mph /  19.1km/h 23.5mph /  37.8km/h 71.2% 0in /  0.0mm
05:29 61.5 °F /  16.4 °C 52.3 °F /  11.3 °C 29.7in /  1004.8hPa Sur 12.3mph /  19.8km/h 23mph /  37km/h 72% 0in /  0.0mm
05:34 61.5 °F /  16.4 °C 52.7 °F /  11.5 °C 29.7in /  1004.8hPa Sur 13mph /  20.9km/h 25.6mph /  41.2km/h 72.9% 0in /  0.0mm
05:39 61.5 °F /  16.4 °C 52.9 °F /  11.6 °C 29.7in /  1004.9hPa Sur 13.7mph /  22.1km/h 26mph /  41.8km/h 73% 0in /  0.0mm
05:44 61.5 °F /  16.4 °C 53.1 °F /  11.7 °C 29.7in /  1004.9hPa Sur 13.7mph /  22.1km/h 24mph /  38.6km/h 73.6% 0in /  0.0mm
05:49 61.5 °F /  16.4 °C 53.2 °F /  11.8 °C 29.7in /  1004.9hPa Sur 13.7mph /  22.1km/h 19mph /  30.6km/h 74% 0in /  0.0mm
05:54 61.5 °F /  16.4 °C 53.2 °F /  11.8 °C 29.7in /  1004.9hPa Sur 11.9mph /  19.1km/h 19mph /  30.6km/h 74% 0in /  0.0mm
05:59 61.5 °F /  16.4 °C 53.2 °F /  11.8 °C 29.7in /  1004.3hPa Sur 10.2mph /  16.4km/h 19mph /  30.6km/h 74.2% 0in /  0.0mm
06:04 61.5 °F /  16.4 °C 53.6 °F /  12 °C 29.7in /  1004.3hPa Sur 10.1mph /  16.2km/h 19.7mph /  31.7km/h 75% 0in /  0.0mm
06:09 61.9 °F /  16.6 °C 53.8 °F /  12.1 °C 29.7in /  1004.3hPa Sur 10mph /  16.1km/h 23mph /  37km/h 75% 0in /  0.0mm
06:14 61.9 °F /  16.6 °C 53.8 °F /  12.1 °C 29.7in /  1004.0hPa Sur 11.6mph /  18.6km/h 23mph /  37km/h 75% 0in /  0.0mm
06:19 61.5 °F /  16.4 °C 53.8 °F /  12.1 °C 29.7in /  1004.0hPa SSO 13mph /  20.9km/h 21mph /  33.8km/h 75.5% 0in /  0.0mm
06:24 61.5 °F /  16.4 °C 54 °F /  12.2 °C 29.7in /  1004.1hPa SSO 11.3mph /  18.2km/h 17mph /  27.4km/h 76% 0in /  0.0mm
06:29 61.7 °F /  16.5 °C 54.1 °F /  12.3 °C 29.7in /  1004.1hPa SSO 9.7mph /  15.6km/h 16mph /  25.7km/h 76% 0in /  0.0mm
06:34 61.5 °F /  16.4 °C 54 °F /  12.2 °C 29.7in /  1004.1hPa SSO 9.1mph /  14.6km/h 16.1mph /  25.9km/h 76% 0in /  0.0mm
06:39 61.5 °F /  16.4 °C 54 °F /  12.2 °C 29.7in /  1004.4hPa SSO 8.5mph /  13.7km/h 16.1mph /  25.9km/h 76.5% 0in /  0.0mm
06:44 61.5 °F /  16.4 °C 54.1 °F /  12.3 °C 29.7in /  1004.4hPa Sur 9.6mph /  15.5km/h 17.5mph /  28.2km/h 77% 0in /  0.0mm
06:49 61.7 °F /  16.5 °C 54.5 °F /  12.5 °C 29.7in /  1004.4hPa SSO 10.7mph /  17.2km/h 22.3mph /  35.9km/h 77% 0in /  0.0mm
06:54 61.9 °F /  16.6 °C 54.7 °F /  12.6 °C 29.7in /  1004.7hPa SSO 10.9mph /  17.6km/h 22mph /  35.4km/h 77.1% 0in /  0.0mm
06:59 61.9 °F /  16.6 °C 54.9 °F /  12.7 °C 29.7in /  1004.7hPa Sur 11.2mph /  18km/h 22mph /  35.4km/h 78% 0in /  0.0mm
07:04 62.1 °F /  16.7 °C 55 °F /  12.8 °C 29.7in /  1004.7hPa Sur 11.9mph /  19.1km/h 24.6mph /  39.6km/h 77.8% 0in /  0.0mm
07:09 62.2 °F /  16.8 °C 55 °F /  12.8 °C 29.7in /  1004.7hPa Sur 12.5mph /  20.1km/h 25mph /  40.2km/h 77% 0in /  0.0mm
07:14 62.4 °F /  16.9 °C 55 °F /  12.8 °C 29.7in /  1004.5hPa Sur 13.6mph /  21.9km/h 24.6mph /  39.6km/h 77% 0in /  0.0mm
07:19 62.4 °F /  16.9 °C 55 °F /  12.8 °C 29.7in /  1004.5hPa SSO 14.7mph /  23.7km/h 27.6mph /  44.4km/h 76.9% 0in /  0.0mm
07:24 62.4 °F /  16.9 °C 54.9 °F /  12.7 °C 29.7in /  1004.5hPa Sur 14.6mph /  23.5km/h 28mph /  45.1km/h 76.4% 0in /  0.0mm
07:29 62.2 °F /  16.8 °C 54.9 °F /  12.7 °C 29.7in /  1004.3hPa Sur 14.5mph /  23.3km/h 22.3mph /  35.9km/h 77% 0in /  0.0mm
07:34 62.2 °F /  16.8 °C 54.9 °F /  12.7 °C 29.7in /  1004.3hPa Sur 14mph /  22.5km/h 22mph /  35.4km/h 77% 0in /  0.0mm
07:39 62.2 °F /  16.8 °C 54.9 °F /  12.7 °C 29.7in /  1004.3hPa Sur 13.5mph /  21.7km/h 21mph /  33.8km/h 76.8% 0in /  0.0mm
07:44 62.2 °F /  16.8 °C 54.7 °F /  12.6 °C 29.7in /  1004.1hPa Sur 12.7mph /  20.4km/h 19mph /  30.6km/h 76% 0in /  0.0mm
07:49 62.2 °F /  16.8 °C 54.7 °F /  12.6 °C 29.7in /  1004.1hPa Sur 11.8mph /  19km/h 19.7mph /  31.7km/h 76% 0in /  0.0mm
07:54 62.6 °F /  17 °C 54.7 °F /  12.6 °C 29.7in /  1004.2hPa Sur 11.6mph /  18.7km/h 20.1mph /  32.3km/h 75.4% 0in /  0.0mm
07:59 63 °F /  17.2 °C 54.9 °F /  12.7 °C 29.7in /  1004.2hPa Sur 11.4mph /  18.4km/h 21mph /  33.8km/h 75% 0in /  0.0mm
08:04 62.8 °F /  17.1 °C 54.9 °F /  12.7 °C 29.7in /  1004.2hPa Sur 11mph /  17.7km/h 21mph /  33.8km/h 75.3% 0in /  0.0mm
08:09 62.8 °F /  17.1 °C 55 °F /  12.8 °C 29.7in /  1004.2hPa Sur 10.7mph /  17.2km/h 23mph /  37km/h 76% 0in /  0.0mm
08:14 62.8 °F /  17.1 °C 55.4 °F /  13 °C 29.7in /  1004.2hPa Sur 11.2mph /  18.1km/h 28.8mph /  46.3km/h 76.5% 0in /  0.0mm
08:19 62.8 °F /  17.1 °C 55.6 °F /  13.1 °C 29.7in /  1004.2hPa Sur 11.8mph /  19km/h 29mph /  46.7km/h 77% 0in /  0.0mm
08:24 62.6 °F /  17 °C 55.4 °F /  13 °C 29.7in /  1004.2hPa SSE 12.4mph /  20km/h 25.6mph /  41.2km/h 77.3% 0in /  0.0mm
08:29 62.8 °F /  17.1 °C 55.4 °F /  13 °C 29.6in /  1003.9hPa SSE 13mph /  20.9km/h 26mph /  41.8km/h 77.1% 0in /  0.0mm
08:34 62.8 °F /  17.1 °C 55.6 °F /  13.1 °C 29.6in /  1003.9hPa SSE 13.8mph /  22.2km/h 22mph /  35.4km/h 77.2% 0in /  0.0mm
08:39 63 °F /  17.2 °C 55.6 °F /  13.1 °C 29.7in /  1004.0hPa SSE 14.5mph /  23.3km/h 22mph /  35.4km/h 77% 0in /  0.0mm
08:44 63.1 °F /  17.3 °C 55.6 °F /  13.1 °C 29.7in /  1004.0hPa Sur 13mph /  21km/h 23.5mph /  37.8km/h 76.4% 0in /  0.0mm
08:49 63.5 °F /  17.5 °C 55.6 °F /  13.1 °C 29.7in /  1004.0hPa SSO 11.8mph /  19km/h 23mph /  37km/h 75% 0in /  0.0mm
08:54 63.7 °F /  17.6 °C 55.4 °F /  13 °C 29.7in /  1004.3hPa SO 10.7mph /  17.3km/h 17mph /  27.4km/h 74.5% 0in /  0.0mm
08:59 63.9 °F /  17.7 °C 55.2 °F /  12.9 °C 29.7in /  1004.3hPa SSO 9.7mph /  15.6km/h 18.5mph /  29.8km/h 73.9% 0in /  0.0mm
09:04 64 °F /  17.8 °C 55.2 °F /  12.9 °C 29.7in /  1004.3hPa SSO 9.9mph /  15.9km/h 19mph /  30.6km/h 73% 0in /  0.0mm
09:09 64.4 °F /  18 °C 55.2 °F /  12.9 °C 29.7in /  1004.5hPa Sur 10mph /  16.1km/h 20.8mph /  33.5km/h 72.1% 0in /  0.0mm
09:14 64.8 °F /  18.2 °C 55.4 °F /  13 °C 29.7in /  1004.5hPa Sur 10.7mph /  17.3km/h 25.3mph /  40.7km/h 71.6% 0in /  0.0mm
09:19 64.9 °F /  18.3 °C 55.4 °F /  13 °C 29.7in /  1004.5hPa SSE 11.4mph /  18.4km/h 25mph /  40.2km/h 71% 0in /  0.0mm
09:24 64.9 °F /  18.3 °C 55.4 °F /  13 °C 29.7in /  1004.5hPa SSE 13mph /  20.9km/h 22mph /  35.4km/h 71% 0in /  0.0mm
09:29 65.5 °F /  18.6 °C 55 °F /  12.8 °C 29.7in /  1004.0hPa SSE 14.5mph /  23.3km/h 22mph /  35.4km/h 68.9% 0in /  0.0mm
09:34 66.2 °F /  19 °C 54.7 °F /  12.6 °C 29.7in /  1004.0hPa SSE 13.5mph /  21.8km/h 22mph /  35.4km/h 66.4% 0in /  0.0mm
09:39 67.3 °F /  19.6 °C 53.8 °F /  12.1 °C 29.7in /  1004.0hPa Sur 12.5mph /  20.1km/h 26.8mph /  43.1km/h 61.8% 0in /  0.0mm
09:44 68.5 °F /  20.3 °C 53.4 °F /  11.9 °C 29.6in /  1003.5hPa Sur 11.4mph /  18.3km/h 27mph /  43.5km/h 58.4% 0in /  0.0mm
09:49 68.9 °F /  20.5 °C 53.1 °F /  11.7 °C 29.6in /  1003.5hPa Sur 10.2mph /  16.4km/h 21.5mph /  34.6km/h 57.3% 0in /  0.0mm
09:54 68.7 °F /  20.4 °C 53.6 °F /  12 °C 29.7in /  1004.0hPa SSE 9.4mph /  15.2km/h 22mph /  35.4km/h 58.6% 0in /  0.0mm
09:59 67.6 °F /  19.8 °C 54.9 °F /  12.7 °C 29.7in /  1004.0hPa SSE 8.7mph /  14km/h 22.3mph /  35.9km/h 63.4% 0in /  0.0mm
10:04 66.9 °F /  19.4 °C 54.7 °F /  12.6 °C 29.7in /  1004.0hPa Sur 10.3mph /  16.5km/h 24.8mph /  39.9km/h 64.5% 0in /  0.0mm
10:09 67.6 °F /  19.8 °C 54 °F /  12.2 °C 29.7in /  1004.5hPa SSO 11.4mph /  18.4km/h 25.3mph /  40.7km/h 61.5% 0in /  0.0mm
10:14 68.2 °F /  20.1 °C 54.1 °F /  12.3 °C 29.7in /  1004.5hPa SSO 12.7mph /  20.4km/h 25mph /  40.2km/h 61% 0in /  0.0mm
10:19 68 °F /  20 °C 54.1 °F /  12.3 °C 29.7in /  1004.5hPa SSO 14mph /  22.5km/h 21.3mph /  34.3km/h 61% 0in /  0.0mm
10:24 68 °F /  20 °C 54.3 °F /  12.4 °C 29.7in /  1005.0hPa SSO 12.2mph /  19.7km/h 21mph /  33.8km/h 61.6% 0in /  0.0mm
10:29 67.8 °F /  19.9 °C 54.3 °F /  12.4 °C 29.7in /  1005.0hPa Sur 10.7mph /  17.2km/h 21mph /  33.8km/h 62% 0in /  0.0mm
10:34 67.5 °F /  19.7 °C 54.9 °F /  12.7 °C 29.7in /  1005.0hPa Sur 9.7mph /  15.6km/h 15mph /  24.1km/h 64.2% 0in /  0.0mm
10:39 66.9 °F /  19.4 °C 55 °F /  12.8 °C 29.7in /  1005.3hPa Sur 8.7mph /  14km/h 15mph /  24.1km/h 65.8% 0in /  0.0mm
10:44 66.7 °F /  19.3 °C 55 °F /  12.8 °C 29.7in /  1005.3hPa SSO 8mph /  12.9km/h 13mph /  20.9km/h 66.1% 0in /  0.0mm
10:49 66.7 °F /  19.3 °C 55.4 °F /  13 °C 29.7in /  1005.3hPa Sur 7.4mph /  11.9km/h 10.4mph /  16.7km/h 67% 0in /  0.0mm
10:54 66.7 °F /  19.3 °C 55.4 °F /  13 °C 29.7in /  1005.5hPa SSE 6.8mph /  10.9km/h 16.1mph /  25.9km/h 67% 0in /  0.0mm
10:59 66.7 °F /  19.3 °C 55.4 °F /  13 °C 29.7in /  1005.5hPa Sur 6.2mph /  10km/h 16mph /  25.7km/h 67% 0in /  0.0mm
11:04 66.7 °F /  19.3 °C 55.8 °F /  13.2 °C 29.7in /  1005.5hPa Sur 7.3mph /  11.7km/h 13mph /  20.9km/h 67.9% 0in /  0.0mm
11:09 66.7 °F /  19.3 °C 55.6 °F /  13.1 °C 29.7in /  1005.6hPa Sur 8.1mph /  13km/h 11.5mph /  18.5km/h 67.4% 0in /  0.0mm
11:14 66.9 °F /  19.4 °C 55.6 °F /  13.1 °C 29.7in /  1005.6hPa SSE 7.7mph /  12.4km/h 12mph /  19.3km/h 67% 0in /  0.0mm
11:19 67.1 °F /  19.5 °C 55.4 °F /  13 °C 29.7in /  1005.6hPa Sur 7.4mph /  11.9km/h 11mph /  17.7km/h 66.3% 0in /  0.0mm
11:24 67.3 °F /  19.6 °C 55.6 °F /  13.1 °C 29.7in /  1005.6hPa Sur 7.4mph /  11.9km/h 12.7mph /  20.4km/h 66% 0in /  0.0mm
11:29 67.5 °F /  19.7 °C 55.8 °F /  13.2 °C 29.7in /  1005.5hPa SSO 7.4mph /  11.9km/h 13mph /  20.9km/h 66% 0in /  0.0mm
11:34 67.3 °F /  19.6 °C 55.6 °F /  13.1 °C 29.7in /  1005.5hPa SSO 7.5mph /  12.1km/h 17.3mph /  27.8km/h 66% 0in /  0.0mm
11:39 67.3 °F /  19.6 °C 55.6 °F /  13.1 °C 29.7in /  1005.5hPa Sur 7.6mph /  12.2km/h 17mph /  27.4km/h 66% 0in /  0.0mm
11:44 66.9 °F /  19.4 °C 55.6 °F /  13.1 °C 29.7in /  1005.1hPa Sur 8.1mph /  13km/h 13mph /  20.9km/h 66.6% 0in /  0.0mm
11:49 66.9 °F /  19.4 °C 55.6 °F /  13.1 °C 29.7in /  1005.1hPa SSO 8.5mph /  13.7km/h 16.1mph /  25.9km/h 67% 0in /  0.0mm
11:54 67.1 °F /  19.5 °C 55.6 °F /  13.1 °C 29.7in /  1005.2hPa SSO 8.3mph /  13.3km/h 16.1mph /  25.9km/h 66.8% 0in /  0.0mm
11:59 67.3 °F /  19.6 °C 55.8 °F /  13.2 °C 29.7in /  1005.2hPa SSO 8.1mph /  13km/h 16mph /  25.7km/h 66.6% 0in /  0.0mm
12:04 67.3 °F /  19.6 °C 55.9 °F /  13.3 °C 29.7in /  1005.2hPa SSO 8.4mph /  13.6km/h 14mph /  22.5km/h 67% 0in /  0.0mm
12:09 67.3 °F /  19.6 °C 55.9 °F /  13.3 °C 29.7in /  1005.5hPa Sur 8.7mph /  14km/h 15.2mph /  24.5km/h 67.1% 0in /  0.0mm
12:14 67.3 °F /  19.6 °C 56.5 °F /  13.6 °C 29.7in /  1005.5hPa Sur 8.1mph /  13km/h 17.8mph /  28.6km/h 68% 0in /  0.0mm
12:19 67.3 °F /  19.6 °C 56.5 °F /  13.6 °C 29.7in /  1005.5hPa Sur 7.4mph /  11.9km/h 18.4mph /  29.6km/h 68% 0in /  0.0mm
12:24 67.3 °F /  19.6 °C 56.5 °F /  13.6 °C 29.7in /  1005.6hPa SSE 8.4mph /  13.5km/h 15mph /  24.1km/h 68.1% 0in /  0.0mm
12:29 67.3 °F /  19.6 °C 56.5 °F /  13.6 °C 29.7in /  1005.6hPa Sur 9.2mph /  14.8km/h 14mph /  22.5km/h 68% 0in /  0.0mm
12:34 67.5 °F /  19.7 °C 56.5 °F /  13.6 °C 29.7in /  1005.6hPa Sur 8.8mph /  14.2km/h 15.9mph /  25.6km/h 68% 0in /  0.0mm
12:39 67.5 °F /  19.7 °C 56.7 °F /  13.7 °C 29.7in /  1005.6hPa Sur 8.5mph /  13.7km/h 16mph /  25.7km/h 68.4% 0in /  0.0mm
12:44 67.6 °F /  19.8 °C 57 °F /  13.9 °C 29.7in /  1005.5hPa Sur 8.9mph /  14.3km/h 15mph /  24.1km/h 68.9% 0in /  0.0mm
12:49 67.6 °F /  19.8 °C 57 °F /  13.9 °C 29.7in /  1005.5hPa SSO 9.2mph /  14.8km/h 15mph /  24.1km/h 68.8% 0in /  0.0mm
12:54 67.6 °F /  19.8 °C 56.7 °F /  13.7 °C 29.7in /  1005.5hPa SSO 8.3mph /  13.4km/h 12mph /  19.3km/h 68% 0in /  0.0mm
12:59 67.6 °F /  19.8 °C 56.8 °F /  13.8 °C 29.7in /  1005.3hPa SSO 7.4mph /  11.9km/h 11.2mph /  18km/h 68% 0in /  0.0mm
13:04 67.8 °F /  19.9 °C 56.7 °F /  13.7 °C 29.7in /  1005.3hPa Sur 6.8mph /  10.9km/h 11mph /  17.7km/h 67.3% 0in /  0.0mm
13:09 67.8 °F /  19.9 °C 56.5 °F /  13.6 °C 29.7in /  1005.3hPa SSO 6.2mph /  10km/h 11mph /  17.7km/h 67% 0in /  0.0mm
13:14 67.8 °F /  19.9 °C 56.8 °F /  13.8 °C 29.7in /  1005.2hPa SO 6mph /  9.7km/h 11mph /  17.7km/h 67.6% 0in /  0.0mm
13:19 67.8 °F /  19.9 °C 56.7 °F /  13.7 °C 29.7in /  1005.2hPa SO 5.9mph /  9.5km/h 10mph /  16.1km/h 67.4% 0in /  0.0mm
13:24 67.8 °F /  19.9 °C 56.8 °F /  13.8 °C 29.7in /  1005.4hPa SSO 5.5mph /  8.9km/h 10.4mph /  16.7km/h 68% 0in /  0.0mm
13:29 67.6 °F /  19.8 °C 56.8 °F /  13.8 °C 29.7in /  1005.4hPa OSO 5.2mph /  8.4km/h 10mph /  16.1km/h 68.5% 0in /  0.0mm
13:34 67.5 °F /  19.7 °C 57 °F /  13.9 °C 29.7in /  1005.4hPa OSO 5.2mph /  8.4km/h 8.5mph /  13.7km/h 69% 0in /  0.0mm
13:39 67.5 °F /  19.7 °C 57.2 °F /  14 °C 29.7in /  1005.4hPa SO 5.2mph /  8.4km/h 9mph /  14.5km/h 69.5% 0in /  0.0mm
13:44 67.3 °F /  19.6 °C 57.2 °F /  14 °C 29.7in /  1005.2hPa SSO 5.2mph /  8.4km/h 9.7mph /  15.6km/h 70% 0in /  0.0mm
13:49 67.3 °F /  19.6 °C 57.2 °F /  14 °C 29.7in /  1005.2hPa SSO 5.2mph /  8.4km/h 11.2mph /  18km/h 70% 0in /  0.0mm
13:54 67.3 °F /  19.6 °C 57.2 °F /  14 °C 29.7in /  1005.2hPa Sur 6.4mph /  10.3km/h 12.7mph /  20.4km/h 70% 0in /  0.0mm
13:59 67.1 °F /  19.5 °C 57 °F /  13.9 °C 29.7in /  1004.7hPa Sur 7.6mph /  12.2km/h 13mph /  20.9km/h 70% 0in /  0.0mm
14:04 67.3 °F /  19.6 °C 57.4 °F /  14.1 °C 29.7in /  1004.7hPa Sur 6.7mph /  10.8km/h 8.1mph /  13km/h 70.5% 0in /  0.0mm
14:09 67.3 °F /  19.6 °C 57.6 °F /  14.2 °C 29.7in /  1004.7hPa Sur 5.9mph /  9.5km/h 8mph /  12.9km/h 71% 0in /  0.0mm
14:14 67.3 °F /  19.6 °C 57.6 °F /  14.2 °C 29.7in /  1004.4hPa SSO 5.3mph /  8.5km/h 7.4mph /  11.9km/h 71% 0in /  0.0mm
14:19 67.3 °F /  19.6 °C 57.6 °F /  14.2 °C 29.7in /  1004.4hPa SSO 4.7mph /  7.6km/h 7.4mph /  11.9km/h 71% 0in /  0.0mm
14:24 67.3 °F /  19.6 °C 57.6 °F /  14.2 °C 29.7in /  1004.8hPa SO 4.7mph /  7.6km/h 7mph /  11.3km/h 71.1% 0in /  0.0mm
14:29 67.3 °F /  19.6 °C 57.9 °F /  14.4 °C 29.7in /  1004.8hPa SO 4.7mph /  7.6km/h 7mph /  11.3km/h 72% 0in /  0.0mm
14:34 66.9 °F /  19.4 °C 57.7 °F /  14.3 °C 29.7in /  1004.8hPa SO 3.2mph /  5.2km/h 5mph /  8km/h 72% 0in /  0.0mm
14:39 66.9 °F /  19.4 °C 57.9 °F /  14.4 °C 29.7in /  1004.8hPa SO 2mph /  3.2km/h 5mph /  8km/h 73% 0in /  0.0mm
14:44 66.7 °F /  19.3 °C 57.7 °F /  14.3 °C 29.7in /  1004.3hPa SSO 1.7mph /  2.7km/h 6.2mph /  10km/h 73% 0in /  0.0mm
14:49 66.7 °F /  19.3 °C 58.1 °F /  14.5 °C 29.7in /  1004.3hPa SSO 1.4mph /  2.2km/h 6.9mph /  11.1km/h 73.9% 0in /  0.0mm
14:54 66.6 °F /  19.2 °C 58.3 °F /  14.6 °C 29.7in /  1004.4hPa SSO 2.8mph /  4.5km/h 7mph /  11.3km/h 74.9% 0in /  0.0mm
14:59 66.4 °F /  19.1 °C 58.3 °F /  14.6 °C 29.7in /  1004.4hPa Sur 4mph /  6.5km/h 10.7mph /  17.2km/h 75.4% 0in /  0.0mm
15:04 66.2 °F /  19 °C 58.3 °F /  14.6 °C 29.7in /  1004.4hPa Sur 4.8mph /  7.7km/h 13.8mph /  22.2km/h 75.6% 0in /  0.0mm
15:09 66.4 °F /  19.1 °C 58.1 °F /  14.5 °C 29.7in /  1004.4hPa Sur 5.4mph /  8.7km/h 14mph /  22.5km/h 75% 0in /  0.0mm
15:14 66.4 °F /  19.1 °C 57.9 °F /  14.4 °C 29.7in /  1004.0hPa SSO 6.7mph /  10.8km/h 14mph /  22.5km/h 74.2% 0in /  0.0mm
15:19 66.6 °F /  19.2 °C 57.7 °F /  14.3 °C 29.7in /  1004.0hPa Sur 8.1mph /  13km/h 15mph /  24.1km/h 73.4% 0in /  0.0mm
15:24 66.6 °F /  19.2 °C 57.4 °F /  14.1 °C 29.7in /  1004.0hPa Sur 7.8mph /  12.5km/h 16.1mph /  25.9km/h 72.1% 0in /  0.0mm
15:29 66.6 °F /  19.2 °C 57.4 °F /  14.1 °C 29.6in /  1003.7hPa Sur 7.4mph /  11.9km/h 16.1mph /  25.9km/h 72% 0in /  0.0mm
15:34 66.6 °F /  19.2 °C 57.2 °F /  14 °C 29.6in /  1003.7hPa Sur 7.8mph /  12.5km/h 16.1mph /  25.9km/h 71.7% 0in /  0.0mm
15:39 66.6 °F /  19.2 °C 56.8 °F /  13.8 °C 29.7in /  1004.2hPa SSO 8.1mph /  13km/h 16.1mph /  25.9km/h 70.6% 0in /  0.0mm
15:44 66.7 °F /  19.3 °C 56.7 °F /  13.7 °C 29.7in /  1004.2hPa Sur 8.1mph /  13km/h 17.5mph /  28.2km/h 70% 0in /  0.0mm
15:49 66.9 °F /  19.4 °C 56.3 °F /  13.5 °C 29.7in /  1004.2hPa Sur 8.1mph /  13km/h 17.3mph /  27.8km/h 69% 0in /  0.0mm
15:54 66.7 °F /  19.3 °C 56.5 °F /  13.6 °C 29.7in /  1004.2hPa Sur 8.1mph /  13km/h 15mph /  24.1km/h 69.6% 0in /  0.0mm
15:59 66.7 °F /  19.3 °C 56.1 °F /  13.4 °C 29.7in /  1004.0hPa SSE 8.1mph /  13km/h 12.7mph /  20.4km/h 69% 0in /  0.0mm
16:04 66.7 °F /  19.3 °C 56.1 °F /  13.4 °C 29.7in /  1004.0hPa Sur 7.7mph /  12.4km/h 13mph /  20.9km/h 69% 0in /  0.0mm
16:09 66.7 °F /  19.3 °C 56.1 °F /  13.4 °C 29.7in /  1004.0hPa SSE 7.4mph /  11.9km/h 13.7mph /  22km/h 69% 0in /  0.0mm
16:14 66.7 °F /  19.3 °C 56.3 °F /  13.5 °C 29.6in /  1003.8hPa Sur 7.8mph /  12.5km/h 14mph /  22.5km/h 69% 0in /  0.0mm
16:19 66.9 °F /  19.4 °C 56.5 °F /  13.6 °C 29.6in /  1003.8hPa Sur 8.1mph /  13km/h 18.5mph /  29.8km/h 69.3% 0in /  0.0mm
16:24 66.7 °F /  19.3 °C 56.7 °F /  13.7 °C 29.6in /  1003.8hPa Sur 8.9mph /  14.4km/h 19mph /  30.6km/h 70.4% 0in /  0.0mm
16:29 66.4 °F /  19.1 °C 56.7 °F /  13.7 °C 29.6in /  1003.4hPa SSE 9.7mph /  15.6km/h 18mph /  29km/h 71% 0in /  0.0mm
16:34 66.2 °F /  19 °C 56.5 °F /  13.6 °C 29.6in /  1003.4hPa SSE 9.9mph /  15.9km/h 18.4mph /  29.6km/h 71% 0in /  0.0mm
16:39 66.2 °F /  19 °C 56.5 °F /  13.6 °C 29.6in /  1003.4hPa Sur 10mph /  16.1km/h 18mph /  29km/h 71% 0in /  0.0mm
16:44 66 °F /  18.9 °C 56.7 °F /  13.7 °C 29.6in /  1003.3hPa Sur 9mph /  14.5km/h 13mph /  20.9km/h 71.6% 0in /  0.0mm
16:49 66 °F /  18.9 °C 56.7 °F /  13.7 °C 29.6in /  1003.3hPa Sur 8.1mph /  13km/h 17.3mph /  27.8km/h 72% 0in /  0.0mm
16:54 66 °F /  18.9 °C 56.7 °F /  13.7 °C 29.6in /  1003.7hPa Sur 8.3mph /  13.4km/h 17mph /  27.4km/h 72% 0in /  0.0mm
16:59 66.2 °F /  19 °C 56.8 °F /  13.8 °C 29.6in /  1003.7hPa SSO 8.5mph /  13.7km/h 13mph /  20.9km/h 72% 0in /  0.0mm
17:04 66.2 °F /  19 °C 56.8 °F /  13.8 °C 29.6in /  1003.7hPa Sur 7.2mph /  11.6km/h 10mph /  16.1km/h 72% 0in /  0.0mm
17:09 66 °F /  18.9 °C 57 °F /  13.9 °C 29.6in /  1003.7hPa Sur 6.2mph /  10km/h 9mph /  14.5km/h 73% 0in /  0.0mm
17:14 66 °F /  18.9 °C 57.2 °F /  14 °C 29.6in /  1003.3hPa Sur 5.2mph /  8.3km/h 8.1mph /  13km/h 73.2% 0in /  0.0mm
17:19 66 °F /  18.9 °C 57.6 °F /  14.2 °C 29.6in /  1003.3hPa SSO 4mph /  6.5km/h 8.5mph /  13.7km/h 74% 0in /  0.0mm
17:24 66 °F /  18.9 °C 57.4 °F /  14.1 °C 29.6in /  1003.6hPa SSO 4.2mph /  6.7km/h 9mph /  14.5km/h 74% 0in /  0.0mm
17:29 65.8 °F /  18.8 °C 57.7 °F /  14.3 °C 29.6in /  1003.6hPa SO 4.3mph /  6.9km/h 8.1mph /  13km/h 74.9% 0in /  0.0mm
17:34 65.8 °F /  18.8 °C 57.7 °F /  14.3 °C 29.6in /  1003.6hPa SSO 4.3mph /  6.9km/h 11.5mph /  18.5km/h 75% 0in /  0.0mm
17:39 65.8 °F /  18.8 °C 58.1 °F /  14.5 °C 29.6in /  1003.6hPa SSO 4.3mph /  6.9km/h 12.7mph /  20.4km/h 75.8% 0in /  0.0mm
17:44 65.8 °F /  18.8 °C 58.1 °F /  14.5 °C 29.6in /  1003.0hPa SSO 5.3mph /  8.5km/h 13mph /  20.9km/h 76% 0in /  0.0mm
17:49 65.7 °F /  18.7 °C 57.9 °F /  14.4 °C 29.6in /  1003.0hPa SSO 6.2mph /  10km/h 9mph /  14.5km/h 76% 0in /  0.0mm
17:54 65.7 °F /  18.7 °C 57.7 °F /  14.3 °C 29.6in /  1003.0hPa Sur 5.7mph /  9.1km/h 9.2mph /  14.8km/h 75.7% 0in /  0.0mm
17:59 65.8 °F /  18.8 °C 57.7 °F /  14.3 °C 29.6in /  1003.0hPa SSE 5.2mph /  8.4km/h 9.2mph /  14.8km/h 75% 0in /  0.0mm
18:04 65.7 °F /  18.7 °C 57.6 °F /  14.2 °C 29.6in /  1003.0hPa SSO 5.2mph /  8.4km/h 9mph /  14.5km/h 75% 0in /  0.0mm
18:09 65.7 °F /  18.7 °C 57.6 °F /  14.2 °C 29.6in /  1003.0hPa SSO 5.2mph /  8.4km/h 9.2mph /  14.8km/h 75% 0in /  0.0mm
18:14 65.7 °F /  18.7 °C 57.6 °F /  14.2 °C 29.6in /  1003.0hPa SO 5.3mph /  8.5km/h 14mph /  22.5km/h 75% 0in /  0.0mm
18:19 65.7 °F /  18.7 °C 57.6 °F /  14.2 °C 29.6in /  1003.0hPa SO 5.4mph /  8.7km/h 14mph /  22.5km/h 75% 0in /  0.0mm
18:24 65.7 °F /  18.7 °C 57.7 °F /  14.3 °C 29.6in /  1003.0hPa SSO 4.8mph /  7.8km/h 13.8mph /  22.2km/h 75.5% 0in /  0.0mm
18:29 65.5 °F /  18.6 °C 57.7 °F /  14.3 °C 29.6in /  1003.0hPa SSO 4.3mph /  6.9km/h 14mph /  22.5km/h 76% 0in /  0.0mm
18:34 65.5 °F /  18.6 °C 57.9 °F /  14.4 °C 29.6in /  1003.0hPa SO 4.8mph /  7.8km/h 10.4mph /  16.7km/h 76.7% 0in /  0.0mm
18:39 65.3 °F /  18.5 °C 57.9 °F /  14.4 °C 29.6in /  1003.1hPa SO 5.4mph /  8.7km/h 10mph /  16.1km/h 77% 0in /  0.0mm
18:44 65.1 °F /  18.4 °C 57.7 °F /  14.3 °C 29.6in /  1003.1hPa OSO 4.8mph /  7.8km/h 9mph /  14.5km/h 77% 0in /  0.0mm
18:49 65.1 °F /  18.4 °C 57.9 °F /  14.4 °C 29.6in /  1003.1hPa OSO 4.3mph /  6.9km/h 6.9mph /  11.1km/h 77.5% 0in /  0.0mm
18:54 64.9 °F /  18.3 °C 57.9 °F /  14.4 °C 29.6in /  1003.1hPa SSO 4mph /  6.4km/h 8.1mph /  13km/h 78% 0in /  0.0mm
18:59 64.9 °F /  18.3 °C 57.9 °F /  14.4 °C 29.6in /  1003.1hPa SO 3.6mph /  5.8km/h 10.4mph /  16.7km/h 78% 0in /  0.0mm
19:04 64.9 °F /  18.3 °C 57.9 °F /  14.4 °C 29.6in /  1003.1hPa SO 4.4mph /  7.1km/h 10mph /  16.1km/h 77.8% 0in /  0.0mm
19:09 64.9 °F /  18.3 °C 57.6 °F /  14.2 °C 29.6in /  1003.1hPa SO 5.2mph /  8.4km/h 8mph /  12.9km/h 77% 0in /  0.0mm
19:14 64.9 °F /  18.3 °C 57.6 °F /  14.2 °C 29.6in /  1003.0hPa Sur 4.5mph /  7.3km/h 7.4mph /  11.9km/h 77% 0in /  0.0mm
19:19 64.9 °F /  18.3 °C 57.6 °F /  14.2 °C 29.6in /  1003.0hPa ESE 4mph /  6.5km/h 7mph /  11.3km/h 77% 0in /  0.0mm
19:24 64.4 °F /  18 °C 57.2 °F /  14 °C 29.6in /  1003.1hPa ENE 3.2mph /  5.1km/h 5mph /  8km/h 77.6% 0in /  0.0mm
19:29 63.7 °F /  17.6 °C 57.2 °F /  14 °C 29.6in /  1003.1hPa NE 2.4mph /  3.9km/h 5.8mph /  9.3km/h 79.2% 0in /  0.0mm
19:34 63.1 °F /  17.3 °C 57 °F /  13.9 °C 29.6in /  1003.1hPa NNE 2.4mph /  3.9km/h 6mph /  9.7km/h 80.7% 0in /  0.0mm
19:39 62.8 °F /  17.1 °C 57.2 °F /  14 °C 29.6in /  1003.2hPa NE 2.4mph /  3.9km/h 5mph /  8km/h 81.9% 0in /  0.0mm
19:44 62.4 °F /  16.9 °C 57.2 °F /  14 °C 29.6in /  1003.2hPa ONO 2.4mph /  3.9km/h 5mph /  8km/h 82.9% 0in /  0.0mm
19:49 62.4 °F /  16.9 °C 57.2 °F /  14 °C 29.6in /  1003.2hPa Oeste 2.4mph /  3.9km/h 5.2mph /  8.4km/h 83% 0in /  0.0mm
19:54 62.4 °F /  16.9 °C 57.2 °F /  14 °C 29.6in /  1003.2hPa NO 2.4mph /  3.9km/h 5mph /  8km/h 83% 0in /  0.0mm
19:59 62.2 °F /  16.8 °C 57 °F /  13.9 °C 29.6in /  1002.8hPa NNE 2.4mph /  3.9km/h 5mph /  8km/h 83% 0in /  0.0mm
20:04 62.1 °F /  16.7 °C 56.8 °F /  13.8 °C 29.6in /  1002.8hPa NE 2.1mph /  3.3km/h 5mph /  8km/h 83.3% 0in /  0.0mm
20:09 62.1 °F /  16.7 °C 57.4 °F /  14.1 °C 29.6in /  1002.8hPa Sur 1.8mph /  2.9km/h 8.1mph /  13km/h 84.4% 0in /  0.0mm
20:14 62.4 °F /  16.9 °C 57.6 °F /  14.2 °C 29.6in /  1002.8hPa SSE 2.5mph /  4km/h 8.7mph /  14km/h 84% 0in /  0.0mm
20:19 63 °F /  17.2 °C 57.7 °F /  14.3 °C 29.6in /  1002.8hPa SSO 3.1mph /  5km/h 10.7mph /  17.2km/h 82.8% 0in /  0.0mm
20:24 63.9 °F /  17.7 °C 57.7 °F /  14.3 °C 29.6in /  1002.8hPa SSO 4.6mph /  7.4km/h 11.8mph /  19km/h 80.4% 0in /  0.0mm
20:29 64.8 °F /  18.2 °C 57.7 °F /  14.3 °C 29.6in /  1002.3hPa SSO 6.2mph /  10km/h 15.2mph /  24.5km/h 78.1% 0in /  0.0mm
20:34 65.1 °F /  18.4 °C 57.6 °F /  14.2 °C 29.6in /  1002.3hPa SSO 6.9mph /  11.1km/h 15mph /  24.1km/h 76.1% 0in /  0.0mm
20:39 65.7 °F /  18.7 °C 57.4 °F /  14.1 °C 29.6in /  1002.4hPa SSO 7.6mph /  12.2km/h 19.6mph /  31.5km/h 74.9% 0in /  0.0mm
20:44 65.7 °F /  18.7 °C 57 °F /  13.9 °C 29.6in /  1002.4hPa SSO 8.7mph /  14km/h 20mph /  32.2km/h 74% 0in /  0.0mm
20:49 65.7 °F /  18.7 °C 57 °F /  13.9 °C 29.6in /  1002.4hPa SSO 9.7mph /  15.6km/h 15mph /  24.1km/h 73.6% 0in /  0.0mm
20:54 65.8 °F /  18.8 °C 56.8 °F /  13.8 °C 29.6in /  1002.4hPa SSO 8.9mph /  14.3km/h 15mph /  24.1km/h 73% 0in /  0.0mm
20:59 65.7 °F /  18.7 °C 56.8 °F /  13.8 °C 29.6in /  1002.1hPa SSO 8.1mph /  13km/h 12mph /  19.3km/h 72.8% 0in /  0.0mm
21:04 65.7 °F /  18.7 °C 56.5 °F /  13.6 °C 29.6in /  1002.1hPa SSO 7.4mph /  11.9km/h 11.8mph /  19km/h 72% 0in /  0.0mm
21:09 65.8 °F /  18.8 °C 56.3 °F /  13.5 °C 29.6in /  1002.1hPa SSO 6.9mph /  11.1km/h 14mph /  22.5km/h 71.4% 0in /  0.0mm
21:14 66 °F /  18.9 °C 56.1 °F /  13.4 °C 29.6in /  1002.0hPa SSO 7.5mph /  12.1km/h 15mph /  24.1km/h 70.3% 0in /  0.0mm
21:19 66.6 °F /  19.2 °C 55.9 °F /  13.3 °C 29.6in /  1002.0hPa SSO 8.1mph /  13km/h 16.3mph /  26.2km/h 68.9% 0in /  0.0mm
21:24 66.7 °F /  19.3 °C 55.6 °F /  13.1 °C 29.6in /  1002.0hPa SSO 8.9mph /  14.4km/h 16mph /  25.7km/h 67.5% 0in /  0.0mm
21:29 66.9 °F /  19.4 °C 55.6 °F /  13.1 °C 29.6in /  1002.0hPa SSO 9.7mph /  15.6km/h 15mph /  24.1km/h 66.8% 0in /  0.0mm
21:34 67.1 °F /  19.5 °C 55.2 °F /  12.9 °C 29.6in /  1002.0hPa SSO 9.4mph /  15.2km/h 14mph /  22.5km/h 65.7% 0in /  0.0mm
21:39 67.5 °F /  19.7 °C 55.2 °F /  12.9 °C 29.6in /  1002.3hPa SSO 9.2mph /  14.8km/h 15.2mph /  24.5km/h 64.6% 0in /  0.0mm
21:44 67.6 °F /  19.8 °C 55 °F /  12.8 °C 29.6in /  1002.3hPa SSO 8.8mph /  14.2km/h 15mph /  24.1km/h 64% 0in /  0.0mm
21:49 67.8 °F /  19.9 °C 55.2 °F /  12.9 °C 29.6in /  1002.3hPa SSO 8.5mph /  13.7km/h 15.2mph /  24.5km/h 64% 0in /  0.0mm
21:54 67.6 °F /  19.8 °C 55.2 °F /  12.9 °C 29.6in /  1002.4hPa SSO 8.5mph /  13.7km/h 15.2mph /  24.5km/h 64.4% 0in /  0.0mm
21:59 67.5 °F /  19.7 °C 55.2 °F /  12.9 °C 29.6in /  1002.4hPa SSO 8.5mph /  13.7km/h 15mph /  24.1km/h 65% 0in /  0.0mm
22:04 67.3 °F /  19.6 °C 55.4 °F /  13 °C 29.6in /  1002.4hPa SSO 8.5mph /  13.7km/h 15mph /  24.1km/h 66% 0in /  0.0mm
22:09 67.3 °F /  19.6 °C 55.6 °F /  13.1 °C 29.6in /  1002.4hPa SSO 8.5mph /  13.7km/h 15mph /  24.1km/h 66% 0in /  0.0mm
22:14 67.1 °F /  19.5 °C 55.4 °F /  13 °C 29.6in /  1002.3hPa SSO 8.5mph /  13.7km/h 15mph /  24.1km/h 66% 0in /  0.0mm
22:19 66.7 °F /  19.3 °C 55.4 °F /  13 °C 29.6in /  1002.3hPa SSO 8.5mph /  13.7km/h 13mph /  20.9km/h 66.6% 0in /  0.0mm
22:24 66.6 °F /  19.2 °C 55.4 °F /  13 °C 29.6in /  1002.4hPa SSO 7.3mph /  11.8km/h 10.4mph /  16.7km/h 67% 0in /  0.0mm
22:29 66.4 °F /  19.1 °C 55.4 °F /  13 °C 29.6in /  1002.4hPa SSO 6.2mph /  10km/h 11.5mph /  18.5km/h 67.8% 0in /  0.0mm
22:34 66.4 °F /  19.1 °C 55.6 °F /  13.1 °C 29.6in /  1002.4hPa SSO 6.5mph /  10.5km/h 12mph /  19.3km/h 68% 0in /  0.0mm
22:39 66.4 °F /  19.1 °C 55.6 °F /  13.1 °C 29.6in /  1002.4hPa SSO 6.9mph /  11.1km/h 10mph /  16.1km/h 68% 0in /  0.0mm
22:44 66.4 °F /  19.1 °C 55.4 °F /  13 °C 29.6in /  1002.3hPa SSO 6.6mph /  10.7km/h 11.8mph /  19km/h 67.8% 0in /  0.0mm
22:49 66.6 °F /  19.2 °C 55.4 °F /  13 °C 29.6in /  1002.3hPa SSO 6.4mph /  10.3km/h 12mph /  19.3km/h 67.1% 0in /  0.0mm
22:54 66.4 °F /  19.1 °C 55.4 °F /  13 °C 29.6in /  1002.3hPa Sur 6.9mph /  11.1km/h 13mph /  20.9km/h 68% 0in /  0.0mm
22:59 65.8 °F /  18.8 °C 55.4 °F /  13 °C 29.6in /  1002.3hPa Sur 7.4mph /  11.9km/h 13mph /  20.9km/h 68.7% 0in /  0.0mm
23:04 65.7 °F /  18.7 °C 55.2 °F /  12.9 °C 29.6in /  1002.3hPa SSO 8mph /  12.8km/h 15.2mph /  24.5km/h 69% 0in /  0.0mm
23:09 65.7 °F /  18.7 °C 55.4 °F /  13 °C 29.6in /  1002.3hPa SSO 8.5mph /  13.7km/h 15mph /  24.1km/h 69.4% 0in /  0.0mm
23:14 65.7 °F /  18.7 °C 55.6 °F /  13.1 °C 29.6in /  1002.1hPa SSO 8.5mph /  13.7km/h 13.8mph /  22.2km/h 70% 0in /  0.0mm
23:19 65.5 °F /  18.6 °C 55.4 °F /  13 °C 29.6in /  1002.1hPa SSO 8.5mph /  13.7km/h 15.2mph /  24.5km/h 70% 0in /  0.0mm
23:24 65.5 °F /  18.6 °C 55.4 °F /  13 °C 29.6in /  1002.1hPa SSO 8.6mph /  13.8km/h 15mph /  24.1km/h 70% 0in /  0.0mm
23:29 65.5 °F /  18.6 °C 55.4 °F /  13 °C 29.6in /  1002.1hPa SO 8.7mph /  14km/h 14mph /  22.5km/h 70% 0in /  0.0mm
23:34 65.7 °F /  18.7 °C 55.6 °F /  13.1 °C 29.6in /  1002.1hPa SSO 8.6mph /  13.8km/h 15mph /  24.1km/h 70% 0in /  0.0mm
23:39 65.5 °F /  18.6 °C 55.4 °F /  13 °C 29.6in /  1002.3hPa Sur 8.5mph /  13.7km/h 15mph /  24.1km/h 70.1% 0in /  0.0mm
23:44 65.1 °F /  18.4 °C 55.6 °F /  13.1 °C 29.6in /  1002.3hPa SSO 9.1mph /  14.7km/h 18.4mph /  29.6km/h 71% 0in /  0.0mm
23:49 65.1 °F /  18.4 °C 55.6 °F /  13.1 °C 29.6in /  1002.3hPa SSO 9.7mph /  15.6km/h 18mph /  29km/h 71% 0in /  0.0mm
23:54 65.1 °F /  18.4 °C 55.6 °F /  13.1 °C 29.6in /  1002.3hPa SSO 9.9mph /  16km/h 17.3mph /  27.8km/h 70.9% 0in /  0.0mm
23:59 65.7 °F /  18.7 °C 55.6 °F /  13.1 °C 29.6in /  1002.2hPa SSO 10.2mph /  16.4km/h 17mph /  27.4km/h 69.8% 0in /  0.0mm
Murcia-Puente Tocinos, España
Compliments of Weather Underground - 2.75 mb

La estación de MeteoMurcia.com, publica sus datos en los siguientes proyectos:

Weather Underground PWS IMURCIAP2 Meteoclimatic www.awekas.at

W3Counter
Web Analytics